< < Back
Terminal Aerodrome Forecast


Current Version              Previous Versions:   1  2  3  4  5  6  7  8  9  

Terminal Aerodrome Forecast

443
FTUS42 KFFC 310500 RRA
TAFAHN
TAF
KAHN 310543Z 3106/0106 32002KT P6SM SKC
     FM311600 32006KT P6SM SCT120
     FM312000 31010G18KT P6SM BKN080
     FM010200 33016G26KT P6SM BKN025 PROB30 0102/0106 6SM -SHRA=

Latest METAR

450
SAUS70 KWBC 311554
MTRAHN
METAR KAHN 311551Z 07004KT 10SM CLR 15/06 A2992 RMK AO2 SLP132
T01500061


USA.gov is the U.S. government's official web portal to all federal, state and local government web resources and services.